createdAt,value
2019-05-26T00:00:59.232Z,50.74
2019-05-26T00:03:30.390Z,50.91
2019-05-26T00:06:01.642Z,50.94
2019-05-26T00:08:32.825Z,51.10
2019-05-26T00:11:03.963Z,50.98
2019-05-26T00:13:35.249Z,51.01
2019-05-26T00:16:06.379Z,51.05
2019-05-26T00:18:37.535Z,51.08
2019-05-26T00:21:08.882Z,51.17
2019-05-26T00:23:40.277Z,51.32
2019-05-26T00:26:11.864Z,51.33
2019-05-26T00:28:43.216Z,51.40
2019-05-26T00:31:14.561Z,51.57
2019-05-26T00:33:45.991Z,51.79
2019-05-26T00:36:17.342Z,51.80
2019-05-26T00:38:48.571Z,51.86
2019-05-26T00:41:19.720Z,52.01
2019-05-26T00:43:51.027Z,51.99
2019-05-26T00:46:22.152Z,52.10
2019-05-26T00:48:53.365Z,52.21
2019-05-26T00:51:24.559Z,52.32
2019-05-26T00:53:55.761Z,52.34
2019-05-26T00:56:27.164Z,52.37
2019-05-26T00:58:58.492Z,52.43
2019-05-26T01:01:30.097Z,52.46
2019-05-26T01:04:02.313Z,52.58
2019-05-26T01:06:33.620Z,52.55
2019-05-26T01:09:06.674Z,52.62
2019-05-26T01:11:38.019Z,52.70
2019-05-26T01:14:09.368Z,52.74
2019-05-26T01:16:40.664Z,52.77
2019-05-26T01:19:12.009Z,52.79
2019-05-26T01:21:43.530Z,52.78
2019-05-26T01:24:15.152Z,52.93
2019-05-26T01:26:46.634Z,52.93
2019-05-26T01:29:18.090Z,52.89
2019-05-26T01:31:49.421Z,52.93
2019-05-26T01:34:20.766Z,52.94
2019-05-26T01:36:52.183Z,53.08
2019-05-26T01:39:23.535Z,53.05
2019-05-26T01:41:55.088Z,53.15
2019-05-26T01:44:26.416Z,53.10
2019-05-26T01:46:57.719Z,53.15
2019-05-26T01:49:29.164Z,53.30
2019-05-26T01:52:00.872Z,53.36
2019-05-26T01:54:32.720Z,53.33
2019-05-26T01:57:04.255Z,53.53
2019-05-26T01:59:35.550Z,53.65
2019-05-26T02:02:06.864Z,53.57
2019-05-26T02:04:38.178Z,53.65
2019-05-26T02:07:09.532Z,53.78
2019-05-26T02:09:40.997Z,53.72
2019-05-26T02:12:12.363Z,53.66
2019-05-26T02:14:43.704Z,53.60
2019-05-26T02:17:15.300Z,53.62
2019-05-26T02:19:46.880Z,53.70
2019-05-26T02:22:18.706Z,53.73
2019-05-26T02:24:50.222Z,53.68
2019-05-26T02:27:21.461Z,53.68
2019-05-26T02:29:52.798Z,53.68
2019-05-26T02:32:24.388Z,53.79
2019-05-26T02:34:55.720Z,53.75
2019-05-26T02:37:26.966Z,53.85
2019-05-26T02:39:58.265Z,53.80
2019-05-26T02:42:30.684Z,53.88
2019-05-26T02:45:02.919Z,53.90
2019-05-26T02:47:35.357Z,53.90
2019-05-26T02:50:07.179Z,53.96
2019-05-26T02:52:38.570Z,53.95
2019-05-26T02:55:10.832Z,54.06
2019-05-26T02:57:42.299Z,54.05
2019-05-26T03:00:13.957Z,54.15
2019-05-26T03:02:45.269Z,54.10
2019-05-26T03:05:16.798Z,54.20
2019-05-26T03:07:48.830Z,54.18
2019-05-26T03:10:20.453Z,54.39
2019-05-26T03:12:54.523Z,54.52
2019-05-26T03:15:25.792Z,54.60
2019-05-26T03:17:58.390Z,54.63
2019-05-26T03:20:31.229Z,54.70
2019-05-26T03:23:03.839Z,54.70
2019-05-26T03:25:36.334Z,54.67
2019-05-26T03:28:07.871Z,54.80
2019-05-26T03:30:39.204Z,54.75
2019-05-26T03:33:10.630Z,54.72
2019-05-26T03:35:43.110Z,54.69
2019-05-26T03:38:14.425Z,54.77
2019-05-26T03:40:45.966Z,54.71
2019-05-26T03:43:17.206Z,54.69
2019-05-26T03:46:17.525Z,54.64
2019-05-26T03:48:49.315Z,54.57
2019-05-26T03:51:21.185Z,54.71
2019-05-26T03:53:52.547Z,54.58
2019-05-26T03:56:24.057Z,54.64
2019-05-26T03:58:55.440Z,54.61
2019-05-26T04:01:27.916Z,54.66
2019-05-26T04:03:59.293Z,54.52
2019-05-26T04:06:30.614Z,54.47
2019-05-26T04:09:02.230Z,54.59
2019-05-26T04:11:33.650Z,54.41
2019-05-26T04:14:05.384Z,54.39
2019-05-26T04:16:38.848Z,54.36
2019-05-26T04:19:10.254Z,54.32
2019-05-26T04:21:41.553Z,54.27
2019-05-26T04:24:12.909Z,54.19
2019-05-26T04:26:44.180Z,54.12
2019-05-26T04:29:15.427Z,54.04
2019-05-26T04:31:46.732Z,54.01
2019-05-26T04:34:17.973Z,53.94
2019-05-26T04:36:49.339Z,53.85
2019-05-26T04:39:20.586Z,53.80
2019-05-26T04:41:52.115Z,53.77
2019-05-26T04:44:29.150Z,53.74
2019-05-26T04:47:00.423Z,53.70
2019-05-26T04:49:36.877Z,53.67
2019-05-26T04:52:04.868Z,53.63
2019-05-26T04:54:36.223Z,53.62
2019-05-26T04:57:08.144Z,53.56
2019-05-26T04:59:39.654Z,53.50
2019-05-26T05:02:11.446Z,53.45
2019-05-26T05:04:42.725Z,53.36
2019-05-26T05:07:14.017Z,53.34
2019-05-26T05:09:45.254Z,53.26
2019-05-26T05:12:16.763Z,53.21
2019-05-26T05:14:48.115Z,53.13
2019-05-26T05:17:19.409Z,53.10
2019-05-26T05:19:50.725Z,53.08
2019-05-26T05:22:22.115Z,53.05
2019-05-26T05:24:53.874Z,52.96
2019-05-26T05:27:25.443Z,52.88
2019-05-26T05:29:56.810Z,52.83
2019-05-26T05:32:28.139Z,52.79
2019-05-26T05:34:59.513Z,52.71
2019-05-26T05:37:30.918Z,52.63
2019-05-26T05:40:02.277Z,52.55
2019-05-26T05:42:33.598Z,52.46
2019-05-26T05:45:05.928Z,52.35
2019-05-26T05:47:37.395Z,52.24
2019-05-26T05:50:09.426Z,52.19
2019-05-26T05:52:41.042Z,52.14
2019-05-26T05:55:12.512Z,52.12
2019-05-26T05:57:43.833Z,52.02
2019-05-26T06:00:16.780Z,52.10
2019-05-26T06:02:48.267Z,52.13
2019-05-26T06:05:19.528Z,52.06
2019-05-26T06:07:50.820Z,51.98
2019-05-26T06:10:22.064Z,51.94
2019-05-26T06:12:53.353Z,51.88
2019-05-26T06:15:24.725Z,51.81
2019-05-26T06:17:56.699Z,51.77
2019-05-26T06:20:28.344Z,51.83
2019-05-26T06:22:59.834Z,51.71
2019-05-26T06:25:31.216Z,51.55
2019-05-26T06:28:02.616Z,51.49
2019-05-26T06:30:34.041Z,51.41
2019-05-26T06:33:07.366Z,51.43
2019-05-26T06:35:39.162Z,51.22
2019-05-26T06:38:10.589Z,51.11
2019-05-26T06:40:42.328Z,50.97
2019-05-26T06:43:13.797Z,50.83
2019-05-26T06:45:45.451Z,50.72
2019-05-26T06:48:16.912Z,50.62
2019-05-26T06:50:48.239Z,50.53
2019-05-26T06:53:19.560Z,50.45
2019-05-26T06:55:50.917Z,50.33
2019-05-26T06:58:22.103Z,50.31
2019-05-26T07:00:53.637Z,50.17
2019-05-26T07:03:24.970Z,50.10
2019-05-26T07:05:56.494Z,50.12
2019-05-26T07:08:28.039Z,50.02
2019-05-26T07:10:59.530Z,49.96
2019-05-26T07:13:30.800Z,49.89
2019-05-26T07:16:02.206Z,49.84
2019-05-26T07:18:33.339Z,49.76
2019-05-26T07:21:04.538Z,49.69
2019-05-26T07:23:35.753Z,49.56
2019-05-26T07:26:06.928Z,49.33
2019-05-26T07:28:38.181Z,49.19
2019-05-26T07:31:09.412Z,49.07
2019-05-26T07:33:40.612Z,48.99
2019-05-26T07:36:11.799Z,48.87
2019-05-26T07:38:43.026Z,48.70
2019-05-26T07:41:14.415Z,48.44
2019-05-26T07:43:46.553Z,47.17
2019-05-26T07:46:17.873Z,47.36
2019-05-26T07:48:49.045Z,47.36
2019-05-26T07:51:20.235Z,47.29
2019-05-26T07:53:51.443Z,47.19
2019-05-26T07:56:22.729Z,47.19
2019-05-26T07:58:53.958Z,45.91
2019-05-26T08:01:35.178Z,46.29
2019-05-26T08:03:58.083Z,46.27
2019-05-26T08:06:29.296Z,46.30
2019-05-26T08:09:00.710Z,46.28
2019-05-26T08:11:32.338Z,46.17
2019-05-26T08:14:03.628Z,46.09
2019-05-26T08:16:35.196Z,45.95
2019-05-26T08:19:06.319Z,45.94
2019-05-26T08:21:37.571Z,45.83
2019-05-26T08:24:08.747Z,45.46
2019-05-26T08:26:39.938Z,45.34
2019-05-26T08:29:11.123Z,45.09
2019-05-26T08:31:42.372Z,45.16
2019-05-26T08:34:13.528Z,45.17
2019-05-26T08:36:44.878Z,45.05
2019-05-26T08:39:16.153Z,45.00
2019-05-26T08:41:47.461Z,44.92
2019-05-26T08:44:18.892Z,44.82
2019-05-26T08:46:50.163Z,44.84
2019-05-26T08:49:21.417Z,44.82
2019-05-26T08:51:52.705Z,44.68
2019-05-26T08:54:23.919Z,44.48
2019-05-26T08:56:55.121Z,44.36
2019-05-26T08:59:26.249Z,44.33
2019-05-26T09:01:57.576Z,44.17
2019-05-26T09:04:28.717Z,44.11
2019-05-26T09:06:59.924Z,43.97
2019-05-26T09:09:31.164Z,43.94
2019-05-26T09:12:02.702Z,43.95
2019-05-26T09:14:33.960Z,43.93
2019-05-26T09:17:05.314Z,43.79
2019-05-26T09:19:36.727Z,43.76
2019-05-26T09:22:07.938Z,42.25
2019-05-26T09:24:39.141Z,41.72
2019-05-26T09:27:10.328Z,42.38
2019-05-26T09:29:41.482Z,42.64
2019-05-26T09:32:12.686Z,42.72
2019-05-26T09:34:43.847Z,42.71
2019-05-26T09:37:15.010Z,42.77
2019-05-26T09:39:46.203Z,42.84
2019-05-26T09:42:17.347Z,42.78
2019-05-26T09:44:48.709Z,42.70
2019-05-26T09:47:19.980Z,42.80
2019-05-26T09:49:51.190Z,42.79
2019-05-26T09:52:22.419Z,42.66
2019-05-26T09:54:53.665Z,42.70
2019-05-26T09:57:25.098Z,42.68
2019-05-26T09:59:56.314Z,42.59
2019-05-26T10:02:27.538Z,41.31
2019-05-26T10:04:58.751Z,41.79
2019-05-26T10:07:29.993Z,41.93
2019-05-26T10:10:01.230Z,41.82
2019-05-26T10:12:32.520Z,41.76
2019-05-26T10:15:03.826Z,41.83
2019-05-26T10:17:35.122Z,41.83
2019-05-26T10:20:07.429Z,41.85
2019-05-26T10:22:39.759Z,41.95
2019-05-26T10:25:12.424Z,41.88
2019-05-26T10:27:44.760Z,41.82
2019-05-26T10:30:16.236Z,41.84
2019-05-26T10:32:47.678Z,41.80
2019-05-26T10:35:18.853Z,41.67
2019-05-26T10:37:50.045Z,41.58
2019-05-26T10:40:21.479Z,41.50
2019-05-26T10:42:52.858Z,41.28
2019-05-26T10:45:24.221Z,41.15
2019-05-26T10:47:55.576Z,40.97
2019-05-26T10:50:26.798Z,40.82
2019-05-26T10:52:58.029Z,40.65
2019-05-26T10:55:29.233Z,40.50
2019-05-26T10:58:00.470Z,40.37
2019-05-26T11:00:33.127Z,40.09
2019-05-26T11:03:04.680Z,40.09
2019-05-26T11:05:35.839Z,40.10
2019-05-26T11:08:07.143Z,39.70
2019-05-26T11:10:38.334Z,39.92
2019-05-26T11:13:09.706Z,39.70
2019-05-26T11:15:40.994Z,39.62
2019-05-26T11:18:12.285Z,39.28
2019-05-26T11:20:43.595Z,39.23
2019-05-26T11:23:14.838Z,39.05
2019-05-26T11:25:46.117Z,38.69
2019-05-26T11:28:17.316Z,38.74
2019-05-26T11:30:48.580Z,38.67
2019-05-26T11:33:19.827Z,38.69
2019-05-26T11:35:51.080Z,38.56
2019-05-26T11:38:22.265Z,38.55
2019-05-26T11:40:53.587Z,38.40
2019-05-26T11:43:24.949Z,38.32
2019-05-26T11:45:56.433Z,38.11
2019-05-26T11:48:28.825Z,37.98
2019-05-26T11:50:59.976Z,37.94
2019-05-26T11:53:31.210Z,37.92
2019-05-26T11:56:02.549Z,37.83
2019-05-26T11:58:34.857Z,37.57
2019-05-26T12:01:06.077Z,37.34
2019-05-26T12:03:37.207Z,37.15
2019-05-26T12:06:08.423Z,36.89
2019-05-26T12:08:39.664Z,36.40
2019-05-26T12:11:11.011Z,36.34
2019-05-26T12:13:42.311Z,36.00
2019-05-26T12:16:13.788Z,35.80
2019-05-26T12:18:44.996Z,35.68
2019-05-26T12:21:16.137Z,34.79
2019-05-26T12:23:47.417Z,35.24
2019-05-26T12:26:18.575Z,35.13
2019-05-26T12:28:49.802Z,34.82
2019-05-26T12:31:21.026Z,34.77
2019-05-26T12:33:52.203Z,34.72
2019-05-26T12:36:23.430Z,34.67
2019-05-26T12:38:54.544Z,34.55
2019-05-26T12:41:25.771Z,34.46
2019-05-26T12:43:57.121Z,34.60
2019-05-26T12:46:28.383Z,34.71
2019-05-26T12:48:59.633Z,34.75
2019-05-26T12:51:30.784Z,34.74
2019-05-26T12:54:02.026Z,34.90
2019-05-26T12:56:33.172Z,35.04
2019-05-26T12:59:04.456Z,35.03
2019-05-26T13:01:35.713Z,35.16
2019-05-26T13:04:06.901Z,35.07
2019-05-26T13:06:38.112Z,35.11
2019-05-26T13:09:11.507Z,35.18
2019-05-26T13:11:42.793Z,35.35
2019-05-26T13:14:14.103Z,35.39
2019-05-26T13:16:45.436Z,35.41
2019-05-26T13:19:17.604Z,35.51
2019-05-26T13:21:48.742Z,35.53
2019-05-26T13:24:19.965Z,35.71
2019-05-26T13:26:51.129Z,35.87
2019-05-26T13:29:25.655Z,35.92
2019-05-26T13:31:55.180Z,35.94
2019-05-26T13:34:26.398Z,35.97
2019-05-26T13:36:57.600Z,36.03
2019-05-26T13:39:28.927Z,36.02
2019-05-26T13:42:00.183Z,35.86
2019-05-26T13:44:31.609Z,35.70
2019-05-26T13:47:02.863Z,35.56
2019-05-26T13:49:34.197Z,35.44
2019-05-26T13:52:06.423Z,35.29
2019-05-26T13:54:37.635Z,35.03
2019-05-26T13:57:08.865Z,34.69
2019-05-26T13:59:40.080Z,34.47
2019-05-26T14:02:11.276Z,34.21
2019-05-26T14:04:42.561Z,34.16
2019-05-26T14:07:13.722Z,33.93
2019-05-26T14:09:45.082Z,33.82
2019-05-26T14:12:16.352Z,33.90
2019-05-26T14:14:47.644Z,33.96
2019-05-26T14:17:19.137Z,34.06
2019-05-26T14:19:51.820Z,34.10
2019-05-26T14:22:23.023Z,34.21
2019-05-26T14:24:54.521Z,34.26
2019-05-26T14:27:25.817Z,34.29
2019-05-26T14:29:57.026Z,34.34
2019-05-26T14:32:28.312Z,34.49
2019-05-26T14:34:59.653Z,34.63
2019-05-26T14:37:31.069Z,34.76
2019-05-26T14:40:02.300Z,34.71
2019-05-26T14:42:33.669Z,34.74
2019-05-26T14:45:05.770Z,34.64
2019-05-26T14:47:36.989Z,34.60
2019-05-26T14:50:08.342Z,34.51
2019-05-26T14:52:39.589Z,34.43
2019-05-26T14:55:10.848Z,34.45
2019-05-26T14:57:42.153Z,34.61
2019-05-26T15:00:15.437Z,34.63
2019-05-26T15:02:46.872Z,34.48
2019-05-26T15:05:18.536Z,34.51
2019-05-26T15:07:49.798Z,34.55
2019-05-26T15:10:22.713Z,34.45
2019-05-26T15:12:54.229Z,34.08
2019-05-26T15:15:25.503Z,33.60
2019-05-26T15:17:57.781Z,33.11
2019-05-26T15:20:29.024Z,32.95
2019-05-26T15:23:00.226Z,32.90
2019-05-26T15:25:31.465Z,32.99
2019-05-26T15:28:02.972Z,33.21
2019-05-26T15:30:34.412Z,33.28
2019-05-26T15:33:05.812Z,33.43
2019-05-26T15:35:37.141Z,33.62
2019-05-26T15:38:08.344Z,33.87
2019-05-26T15:40:39.558Z,34.06
2019-05-26T15:43:10.984Z,34.19
2019-05-26T15:45:42.202Z,34.34
2019-05-26T15:48:13.460Z,34.36
2019-05-26T15:50:44.692Z,34.41
2019-05-26T15:53:15.872Z,34.51
2019-05-26T15:55:47.097Z,34.58
2019-05-26T15:58:18.361Z,34.61
2019-05-26T16:00:49.887Z,34.76
2019-05-26T16:03:21.155Z,34.85
2019-05-26T16:05:52.492Z,34.92
2019-05-26T16:08:23.763Z,35.04
2019-05-26T16:10:54.959Z,35.19
2019-05-26T16:13:26.159Z,35.27
2019-05-26T16:15:58.328Z,35.39
2019-05-26T16:18:29.558Z,35.48
2019-05-26T16:21:03.380Z,35.54
2019-05-26T16:23:33.700Z,35.58
2019-05-26T16:26:05.132Z,35.62
2019-05-26T16:28:36.771Z,35.70
2019-05-26T16:31:12.154Z,35.78
2019-05-26T16:33:42.144Z,35.79
2019-05-26T16:36:13.308Z,35.84
2019-05-26T16:38:45.469Z,35.87
2019-05-26T16:41:16.649Z,35.85
2019-05-26T16:43:48.351Z,35.95
2019-05-26T16:46:19.497Z,36.00
2019-05-26T16:48:54.270Z,36.10
2019-05-26T16:51:23.827Z,36.19
2019-05-26T16:53:55.152Z,36.29
2019-05-26T16:56:26.347Z,36.41
2019-05-26T16:58:57.536Z,36.49
2019-05-26T17:01:28.741Z,36.58
2019-05-26T17:03:59.932Z,36.58
2019-05-26T17:06:31.225Z,36.57
2019-05-26T17:09:02.606Z,36.55
2019-05-26T17:11:33.854Z,36.54
2019-05-26T17:14:05.481Z,36.59
2019-05-26T17:16:36.685Z,36.63
2019-05-26T17:19:08.060Z,36.67
2019-05-26T17:21:39.374Z,36.68
2019-05-26T17:24:10.633Z,36.69
2019-05-26T17:26:41.934Z,36.72
2019-05-26T17:29:13.184Z,36.72
2019-05-26T17:31:44.608Z,36.75
2019-05-26T17:34:15.721Z,36.80
2019-05-26T17:36:47.011Z,36.89
2019-05-26T17:39:18.271Z,36.95
2019-05-26T17:41:49.499Z,37.01
2019-05-26T17:44:20.724Z,37.08
2019-05-26T17:46:52.037Z,37.11
2019-05-26T17:49:23.548Z,37.14
2019-05-26T17:51:55.113Z,37.14
2019-05-26T17:54:26.357Z,37.14
2019-05-26T17:56:57.704Z,37.17
2019-05-26T17:59:28.958Z,37.18
2019-05-26T18:02:00.160Z,37.18
2019-05-26T18:04:31.394Z,37.23
2019-05-26T18:07:02.599Z,37.33
2019-05-26T18:09:43.658Z,37.33
2019-05-26T18:12:06.770Z,37.39
2019-05-26T18:14:37.890Z,37.45
2019-05-26T18:17:09.315Z,37.51
2019-05-26T18:19:40.592Z,37.58
2019-05-26T18:22:12.072Z,37.63
2019-05-26T18:24:54.654Z,37.69
2019-05-26T18:27:16.363Z,37.74
2019-05-26T18:29:47.601Z,37.82
2019-05-26T18:32:18.800Z,37.88
2019-05-26T18:34:50.142Z,37.94
2019-05-26T18:37:21.348Z,38.00
2019-05-26T18:39:53.796Z,38.07
2019-05-26T18:42:25.170Z,38.12
2019-05-26T18:44:56.574Z,38.16
2019-05-26T18:47:27.951Z,38.26
2019-05-26T18:49:59.348Z,38.39
2019-05-26T18:52:30.627Z,38.46
2019-05-26T18:55:01.971Z,38.57
2019-05-26T18:57:33.264Z,38.64
2019-05-26T19:00:05.167Z,38.68
2019-05-26T19:02:36.449Z,38.71
2019-05-26T19:05:07.903Z,38.75
2019-05-26T19:07:39.259Z,38.81
2019-05-26T19:10:12.378Z,38.84
2019-05-26T19:12:43.875Z,38.91
2019-05-26T19:15:16.555Z,38.97
2019-05-26T19:17:47.759Z,39.00
2019-05-26T19:20:19.002Z,39.06
2019-05-26T19:22:53.289Z,39.10
2019-05-26T19:25:23.313Z,39.14
2019-05-26T19:27:54.751Z,39.16
2019-05-26T19:30:25.985Z,39.18
2019-05-26T19:32:57.693Z,39.17
2019-05-26T19:35:28.944Z,39.12
2019-05-26T19:38:00.770Z,39.11
2019-05-26T19:40:32.038Z,39.08
2019-05-26T19:43:03.433Z,39.04
2019-05-26T19:45:34.642Z,38.98
2019-05-26T19:48:05.958Z,38.90
2019-05-26T19:50:37.687Z,38.88
2019-05-26T19:53:08.977Z,38.86
2019-05-26T19:55:40.243Z,38.84
2019-05-26T19:58:11.516Z,38.86
2019-05-26T20:00:42.752Z,38.85
2019-05-26T20:03:14.226Z,38.85
2019-05-26T20:05:45.778Z,38.85
2019-05-26T20:08:17.138Z,38.85
2019-05-26T20:10:48.458Z,38.85
2019-05-26T20:13:19.678Z,38.89
2019-05-26T20:15:51.004Z,38.92
2019-05-26T20:18:22.185Z,38.95
2019-05-26T20:20:53.467Z,38.98
2019-05-26T20:23:24.661Z,39.01
2019-05-26T20:25:55.866Z,39.04
2019-05-26T20:28:27.172Z,39.04
2019-05-26T20:30:58.319Z,39.03
2019-05-26T20:33:29.681Z,39.01
2019-05-26T20:36:01.035Z,39.02
2019-05-26T20:38:33.489Z,39.01
2019-05-26T20:41:05.326Z,39.03
2019-05-26T20:43:36.851Z,39.04
2019-05-26T20:46:09.231Z,39.08
2019-05-26T20:48:40.416Z,39.10
2019-05-26T20:51:11.689Z,39.13
2019-05-26T20:53:42.964Z,39.15
2019-05-26T20:56:14.357Z,39.18
2019-05-26T20:58:45.632Z,39.24
2019-05-26T21:01:16.995Z,39.29
2019-05-26T21:03:48.613Z,39.32
2019-05-26T21:06:20.259Z,39.35
2019-05-26T21:08:51.856Z,39.40
2019-05-26T21:11:23.143Z,39.43
2019-05-26T21:13:54.373Z,39.47
2019-05-26T21:16:25.627Z,39.52
2019-05-26T21:18:56.999Z,39.57
2019-05-26T21:21:28.331Z,39.61
2019-05-26T21:23:59.706Z,39.68
2019-05-26T21:26:31.102Z,39.70
2019-05-26T21:29:02.402Z,39.70
2019-05-26T21:31:33.673Z,39.75
2019-05-26T21:34:07.347Z,39.81
2019-05-26T21:36:38.593Z,39.86
2019-05-26T21:39:09.802Z,40.00
2019-05-26T21:41:41.055Z,40.03
2019-05-26T21:44:12.290Z,40.04
2019-05-26T21:46:43.460Z,40.08
2019-05-26T21:49:14.761Z,40.14
2019-05-26T21:51:45.993Z,40.20
2019-05-26T21:54:17.238Z,40.24
2019-05-26T21:56:48.665Z,40.27
2019-05-26T21:59:20.060Z,40.33
2019-05-26T22:01:51.594Z,40.34
2019-05-26T22:04:22.804Z,40.34
2019-05-26T22:06:54.213Z,40.37
2019-05-26T22:09:25.491Z,40.39
2019-05-26T22:11:56.895Z,40.44
2019-05-26T22:16:57.853Z,40.52
2019-05-26T22:19:29.098Z,40.58
2019-05-26T22:22:01.373Z,40.60
2019-05-26T22:24:32.571Z,40.63
2019-05-26T22:27:03.835Z,40.66
2019-05-26T22:29:35.189Z,40.68
2019-05-26T22:32:06.407Z,40.73
2019-05-26T22:34:37.730Z,40.80
2019-05-26T22:37:08.934Z,40.86
2019-05-26T22:39:41.112Z,40.92
2019-05-26T22:42:12.432Z,40.97
2019-05-26T22:44:43.718Z,41.05
2019-05-26T22:47:14.914Z,41.05
2019-05-26T22:49:46.096Z,41.08
2019-05-26T22:52:18.240Z,41.12
2019-05-26T22:54:49.418Z,41.12
2019-05-26T22:57:20.941Z,41.12
2019-05-26T22:59:52.237Z,41.16
2019-05-26T23:02:23.694Z,41.17
2019-05-26T23:04:54.916Z,41.17
2019-05-26T23:07:26.192Z,41.17
2019-05-26T23:09:57.346Z,41.19
2019-05-26T23:12:28.592Z,41.18
2019-05-26T23:14:59.844Z,41.17
2019-05-26T23:17:31.064Z,41.19
2019-05-26T23:20:02.407Z,41.17
2019-05-26T23:22:33.619Z,41.17
2019-05-26T23:25:05.931Z,41.19
2019-05-26T23:27:37.256Z,41.22
2019-05-26T23:30:10.022Z,41.29
2019-05-26T23:32:41.247Z,41.34
2019-05-26T23:35:13.287Z,41.39
2019-05-26T23:37:44.533Z,41.48
2019-05-26T23:40:15.757Z,41.53
2019-05-26T23:42:46.967Z,41.60
2019-05-26T23:45:18.223Z,41.62
2019-05-26T23:47:49.407Z,41.72
2019-05-26T23:50:20.581Z,41.76
2019-05-26T23:52:51.773Z,41.85
2019-05-26T23:55:23.202Z,41.92
2019-05-26T23:57:54.540Z,41.99
